Relevés horaires Koksijde (Belgique)


Relevés horaires à Koksijde - Mardi 23 Mai 2023
Heure UTC1 Température [°C] Vent [km/h] Hum. [%] Pres.4 [hPa] Visi. [Km] Nébu. [octa] Préc.5 [mm] Cond.
2m. Res. Ros. Dir.2 Vit. Moy. Raf.3
23:00 7.9 7.9 5.4 NNO 1.9 -- 3.7 84 1026.2(0.1/3h) 19 -- -- --
22:00 8.9 8.9 6.1 NNO 1.9 -- 7.4 83 1026.2(0.2/3h) 20 -- -- --
21:00 9.1 8.6 6.2 N 5.6 -- 16.7 82 1026.5(0.5/3h) 20 -- -- --
20:00 9.8 9.4 6.4 N 5.6 -- 13.0 79 1026(0.1/3h) 19 -- -- --
19:00 11.0 9.9 6.2 N 9.3 -- 16.7 72 1026(-0.1/3h) 18 -- -- --
18:00 11.8 10.6 6.3 N 11.1 -- 20.4 69 1025.9(-0.1/3h) 20 -- -- --
17:00 12.4 11.1 6.4 N 13.0 -- 18.5 67 1026(-0.1/3h) 19 -- -- --
16:00 13.1 12.2 7.5 N 11.1 -- 20.4 69 1026.2(0.0/3h) 18 -- -- --
15:00 13.4 12.3 7.7 N 13.0 -- 20.4 68 1026(0.0/3h) 19 -- -- --
14:00 13.8 12.6 7.0 N 14.8 -- 20.4 63 1026.2(0.2/3h) 17 6/8 -- --
13:00 13.8 12.6 8.2 N 14.8 -- 20.4 69 1026(0.5/3h) 17 7/8 -- --
11:00 13.4 12.3 7.7 N 13.0 -- 20.4 68 1025.9(1.0/3h) 17 7/8 -- --
10:00 13.6 12.6 8.4 N 13.0 -- 20.4 71 1025.5(0.8/3h) 17 7/8 -- --
09:00 12.9 11.7 8.2 NNE 13.0 -- 20.4 73 1025(0.8/3h) 15 7/8 -- --
08:00 11.7 10.2 7.9 N 13.0 -- 18.5 77 1024.9(1.3/3h) 15 8/8 -- --
06:00 11.3 9.5 8.4 N 14.8 -- 20.4 82 1024.2(1.2/3h) 12 7/8 -- --
05:00 11.6 10.1 9.2 N 13.0 -- 20.4 85 1023.5(0.9/3h) 12 7/8 -- --
04:00 11.6 10.1 9.2 N 13.0 -- 20.4 85 1023.2(0.8/3h) 15 -- -- --
03:00 12.2 11.1 9.9 N 11.1 -- 16.7 86 1022.8(0.8/3h) 14 -- -- --
02:00 12.4 11.9 10.5 N 7.4 -- 16.7 88 1022.5(0.4/3h) 13 -- -- --
01:00 12.3 11.8 10.9 N 7.4 -- 16.7 91 1022.3(0.5/3h) 10 -- -- --
00:00 12.0 10.9 11.0 N 11.1 -- 22.2 94 1022.1(0.8/3h) 9 -- -- --

1 Coordinated Universal Time. Actuellement il est 16:00 locale et 14:00 UTC.

2 Le vent souffle depuis la direction indiquée vers la direction oposée.

3 Les rafales max. sont disponible 40 min après l'heure du relevé.

4 Pour les stations d'altitude (plus de 600m) le géopotentiel du niveau le plus proche de la pression obligatoire est indiqué.

5 Les stations disposant d'un diffuseur peuvent indiquer "trace". Cela signifie que des précipitations ont touchés le sol mais que la quantité est inférieure à 0.1 mm.

Récapitulatif de la journée
Température [°C] Vent [km/h] Ensoleillement4 [h] Precipitations totale5 [mm] Pression [Hpa]
Min1 Max.2 Moy.3 Max. Min Max.
11.2 14.6 0 22.2 0 h 0 min 0 1022.1 1026.5

1 Température minimale relevée entre 18:00 UTC la veille et 18:00 UTC le jour donné.

2 Température maximale relevée entre 06:00 UTC le jour donné et 06:00 UTC le lendemain.

3 Vent moyen de la journée basé sur les relevés horaires.

4 Ensoleillement en heures relevé entre 06:00 UTC la veille et 06:00 UTC le jour donné.

5 Précipitations totales tombées entre 06:00 UTC la jour donné et 06:00 UTC le lendemain.

Graphiques horaires